ROMMA est une association bénévole à but non lucratif. Votre soutien est indispensable : ADHERER à ROMMA ou FAIRE un DON

St-Christophe/Guiers - Berland - (38, Isère)

Massif de la Chartreuse (533 m)   Longitude: 05° 46' 44" E   Latitude: 45° 25' 43" N Station partenaire n°32
 

Détail journalier du     <<     >>

Température Precipitation Humidité Pression Vent Dir Rafale Dir. rafale Ensol.
Heure (°C) (mm) (%) (hPa) (km/h) (km/h) (min)
01:00 13.506410265SO19SO0
02:00 13.006610266ENE15ENE0
03:00 12.106810256ENE13E0
04:00 11.706910257ENE18ENE0
05:00 11.706810257ENE18NE0
06:00 9.907410252S10NE0
07:00 9.6075102500---0
08:00 9.6077102500---0
09:00 11.9073102500---25
10:00 13.306710242NNO6SO60
11:00 15.706110243ONO6O60
12:00 17.704910243ONO10SO60
13:00 18.405010235OSO16ONO60
14:00 19.904310225ONO15OSO60
15:00 19.804310215ONO16OSO30
16:00 21.403810215SO15SO50
17:00 21.903910207SO21O60
18:00 21.602910194SSO15NO45
19:00 20.802610197ENE24NNE45
20:00 19.4026101910ENE24NE25
21:00 18.102610205E21ENE5
22:00 17.802710205E19E0
23:00 15.903810214ESE23ESE0
minuit 14.305210212SO16SSO0

Graphique du 20-04-2019

 

Serveur OMMA